Time;durP1;ratioP1;P1;durP2;ratioP2;P2;SDS_P1;SDS_P2;PMS_P1;PMS_P2;Temp;Humidity;BMP_temperature;BMP_pressure;BME280_temperature;BME280_humidity;BME280_pressure;Samples;Min_cycle;Max_cycle;Signal;HPM_P1;HPM_P2
2022/10/08 00:00:53;;;;;;;5.63;1.52;;;13.10;99.90;;;;;;5034255;28;20060;-66
2022/10/08 00:03:21;;;;;;;5.85;1.35;;;13.10;99.90;;;;;;5034172;28;20076;-67
2022/10/08 00:05:59;;;;;;;1.60;0.90;;;13.00;99.90;;;;;;5033882;28;20056;-66
2022/10/08 00:08:26;;;;;;;3.13;1.30;;;13.00;99.90;;;;;;5016026;28;20037;-66
2022/10/08 00:10:53;;;;;;;3.00;1.00;;;13.00;99.90;;;;;;5034087;28;20401;-66
2022/10/08 00:13:20;;;;;;;2.90;1.00;;;13.00;99.90;;;;;;5033995;28;20045;-67
2022/10/08 00:15:46;;;;;;;3.67;1.30;;;13.00;99.90;;;;;;5033706;28;20045;-66
2022/10/08 00:18:11;;;;;;;6.10;1.10;;;13.00;99.90;;;;;;5033542;28;20096;-66
2022/10/08 00:20:37;;;;;;;3.85;1.23;;;13.00;99.90;;;;;;5016128;28;20053;-66
2022/10/08 00:23:03;;;;;;;3.03;1.17;;;12.90;99.90;;;;;;5033495;28;20073;-66
2022/10/08 00:25:28;;;;;;;2.28;0.90;;;13.00;99.90;;;;;;5033780;28;20135;-66
2022/10/08 00:27:54;;;;;;;1.75;1.00;;;12.90;99.90;;;;;;5033763;28;20037;-66
2022/10/08 00:30:20;;;;;;;2.22;1.00;;;12.90;99.90;;;;;;5033372;28;20091;-66
2022/10/08 00:32:45;;;;;;;5.47;1.15;;;13.00;99.90;;;;;;5033548;28;20047;-67
2022/10/08 00:35:11;;;;;;;2.20;1.02;;;12.90;99.90;;;;;;5033635;28;20127;-66
2022/10/08 00:37:37;;;;;;;2.38;0.80;;;12.90;99.90;;;;;;5015362;28;20055;-66
2022/10/08 00:40:03;;;;;;;1.40;0.88;;;12.90;99.90;;;;;;5033223;28;20037;-66
2022/10/08 00:42:29;;;;;;;1.63;0.90;;;12.90;99.90;;;;;;5015333;28;20103;-66
2022/10/08 00:44:59;;;;;;;1.52;0.77;;;12.90;99.90;;;;;;5033083;28;20436;-66
2022/10/08 00:47:31;;;;;;;2.97;0.82;;;12.90;99.90;;;;;;5033401;28;20068;-66
2022/10/08 00:50:04;;;;;;;0.88;0.85;;;12.90;99.90;;;;;;5033261;28;20049;-66
2022/10/08 00:52:34;;;;;;;5.45;0.70;;;12.90;99.90;;;;;;5033316;28;20045;-67
2022/10/08 00:55:05;;;;;;;1.13;0.93;;;12.80;99.90;;;;;;5032970;28;20045;-67
2022/10/08 00:57:34;;;;;;;4.55;0.98;;;12.80;99.90;;;;;;5032916;28;20045;-67
2022/10/08 01:00:08;;;;;;;3.25;0.85;;;12.90;99.90;;;;;;5032839;28;20121;-66
2022/10/08 01:05:23;;;;;;;5.22;1.65;;;12.80;99.90;;;;;;3429862;22;20422;-76
2022/10/08 01:08:01;;;;;;;3.33;0.93;;;12.90;99.90;;;;;;5039132;22;20084;-77
2022/10/08 01:10:33;;;;;;;1.92;0.55;;;12.80;99.90;;;;;;4998706;28;20523;-77
2022/10/08 01:15:56;;;;;;;6.05;0.93;;;12.80;99.90;;;;;;4397979;22;20051;-92
2022/10/08 01:18:24;;;;;;;1.17;0.73;;;12.70;99.90;;;;;;5040609;28;20063;-93
2022/10/08 01:21:01;;;;;;;2.45;0.90;;;12.70;99.90;;;;;;5040509;28;20044;-93
2022/10/08 01:23:50;;;;;;;4.85;0.95;;;12.60;99.90;;;;;;5040557;28;20444;-95
2022/10/08 01:26:31;;;;;;;5.47;1.02;;;12.50;99.90;;;;;;5040481;28;20876;-92
2022/10/08 01:29:20;;;;;;;3.50;1.02;;;12.50;99.90;;;;;;5040912;28;20041;-90
2022/10/08 01:32:02;;;;;;;2.15;0.70;;;12.40;99.90;;;;;;5056446;28;20044;-92
2022/10/08 01:34:55;;;;;;;2.60;0.90;;;12.40;99.90;;;;;;5040302;28;20066;-94
2022/10/08 01:37:27;;;;;;;2.72;1.02;;;12.30;99.90;;;;;;5039277;28;20097;-91
2022/10/08 01:39:57;;;;;;;2.10;0.90;;;12.30;99.90;;;;;;5040577;28;20135;-93
2022/10/08 01:42:25;;;;;;;1.60;0.77;;;12.30;99.90;;;;;;5040561;28;20044;-91
2022/10/08 01:45:02;;;;;;;3.28;1.05;;;12.20;99.90;;;;;;5057326;28;20382;-93
2022/10/08 01:47:29;;;;;;;1.20;0.88;;;12.20;99.90;;;;;;5040510;28;20075;-90
2022/10/08 01:50:29;;;;;;;2.00;0.70;;;12.20;99.90;;;;;;5056461;28;20079;-93
2022/10/08 01:52:59;;;;;;;2.13;0.82;;;12.20;99.90;;;;;;5040238;28;20079;-93
2022/10/08 01:55:30;;;;;;;1.20;0.68;;;12.10;99.90;;;;;;5040660;28;20044;-91
2022/10/08 01:57:58;;;;;;;;;;;12.10;99.90;;;;;;5040462;28;20044;-91
2022/10/08 02:00:24;;;;;;;0.85;0.70;;;12.10;99.90;;;;;;5040681;28;19927;-91
2022/10/08 02:02:53;;;;;;;6.57;1.00;;;12.10;99.90;;;;;;5039813;28;20472;-92
2022/10/08 02:05:19;;;;;;;3.00;1.13;;;12.00;99.90;;;;;;5040415;28;20369;-92
2022/10/08 02:07:45;;;;;;;2.75;1.00;;;12.00;99.90;;;;;;5024129;28;20056;-91
2022/10/08 02:10:15;;;;;;;1.50;0.80;;;11.90;99.90;;;;;;5040374;28;20049;-91
2022/10/08 02:12:42;;;;;;;4.60;0.93;;;11.90;99.90;;;;;;5056743;28;20045;-92
2022/10/08 02:15:13;;;;;;;1.42;0.70;;;11.90;99.90;;;;;;5040660;28;20102;-89
2022/10/08 02:17:45;;;;;;;2.63;1.15;;;11.90;99.90;;;;;;5039630;28;20377;-92
2022/10/08 02:20:38;;;;;;;5.03;1.08;;;11.90;99.90;;;;;;5039974;28;20052;-91
2022/10/08 02:23:18;;;;;;;1.02;0.70;;;11.90;99.90;;;;;;5056332;28;20044;-92
2022/10/08 02:26:02;;;;;;;2.50;1.00;;;10.40;99.90;;;;;;5040047;28;20047;-91
2022/10/08 02:28:46;;;;;;;2.60;0.88;;;11.80;99.90;;;;;;5040695;28;20098;-92
2022/10/08 02:31:47;;;;;;;1.42;1.00;;;11.80;99.90;;;;;;5040143;28;20048;-91
2022/10/08 02:34:36;;;;;;;2.45;1.10;;;11.70;99.90;;;;;;5024107;28;20063;-91
2022/10/08 02:37:20;;;;;;;1.83;1.23;;;11.70;99.90;;;;;;5039957;28;20059;-90
2022/10/08 02:39:50;;;;;;;1.08;0.80;;;11.70;99.90;;;;;;5040471;28;20506;-95
2022/10/08 02:42:21;;;;;;;2.13;0.80;;;11.60;99.90;;;;;;5040241;28;20049;-91
2022/10/08 02:45:37;;;;;;;3.95;1.38;;;11.60;99.90;;;;;;5055614;28;20052;-93
2022/10/08 02:48:12;;;;;;;1.90;1.20;;;11.50;99.90;;;;;;5052438;28;20060;-94
2022/10/08 02:50:41;;;;;;;3.60;1.10;;;11.60;99.90;;;;;;5040887;28;20062;-94
2022/10/08 02:53:09;;;;;;;2.47;1.05;;;12.00;99.90;;;;;;5039617;28;20059;-92
2022/10/08 02:55:40;;;;;;;1.58;0.95;;;11.60;99.90;;;;;;5039813;28;20052;-93
2022/10/08 02:58:08;;;;;;;;;;;11.50;99.90;;;;;;5040333;28;20079;-93
2022/10/08 03:00:48;;;;;;;4.15;1.10;;;9.50;99.90;;;;;;5038939;28;19920;-95
2022/10/08 03:03:20;;;;;;;3.15;1.08;;;11.50;99.90;;;;;;5043297;28;20122;-93
2022/10/08 03:05:47;;;;;;;2.53;1.17;;;11.40;99.90;;;;;;5043743;28;20045;-93
2022/10/08 03:08:14;;;;;;;3.78;1.30;;;11.40;99.90;;;;;;5043262;28;20041;-92
2022/10/08 03:10:42;;;;;;;2.70;0.90;;;11.40;99.90;;;;;;5043412;28;20048;-91
2022/10/08 03:13:09;;;;;;;3.85;1.13;;;10.90;99.90;;;;;;5043269;28;20503;-93
2022/10/08 03:15:37;;;;;;;3.05;1.10;;;11.40;99.90;;;;;;5026793;28;20063;-92
2022/10/08 03:18:07;;;;;;;4.40;1.00;;;11.30;99.90;;;;;;5042459;28;20068;-92
2022/10/08 03:20:39;;;;;;;7.55;1.23;;;11.30;99.90;;;;;;5043412;28;20055;-93
2022/10/08 03:23:05;;;;;;;2.53;1.15;;;13.00;99.90;;;;;;5043656;28;20479;-94
2022/10/08 03:25:31;;;;;;;3.83;0.82;;;11.30;99.90;;;;;;5010343;28;20059;-92
2022/10/08 03:27:57;;;;;;;2.03;1.10;;;11.30;99.90;;;;;;5026108;28;20368;-93
2022/10/08 03:30:22;;;;;;;2.17;1.63;;;11.30;99.90;;;;;;5026722;28;20056;-92
2022/10/08 03:32:48;;;;;;;3.67;1.27;;;11.30;99.90;;;;;;5009750;28;20048;-93
2022/10/08 03:35:14;;;;;;;2.30;0.95;;;13.30;99.90;;;;;;5042861;28;20098;-92
2022/10/08 03:37:39;;;;;;;1.73;1.10;;;11.30;99.90;;;;;;5026735;28;20048;-93
2022/10/08 03:40:06;;;;;;;2.65;1.30;;;11.20;99.90;;;;;;5043258;28;20047;-92
2022/10/08 03:42:31;;;;;;;4.65;1.25;;;11.20;99.90;;;;;;5026433;28;20084;-92
2022/10/08 03:45:00;;;;;;;2.47;1.45;;;11.10;99.90;;;;;;5025494;28;20392;-91
2022/10/08 03:47:25;;;;;;;1.67;1.17;;;11.10;99.90;;;;;;5010187;28;20044;-92
2022/10/08 03:49:51;;;;;;;8.82;1.17;;;11.10;99.90;;;;;;5009937;28;20105;-94
2022/10/08 03:52:17;;;;;;;3.17;1.30;;;11.10;99.90;;;;;;5026798;28;20036;-95
2022/10/08 03:54:42;;;;;;;2.15;1.08;;;11.10;99.90;;;;;;5042907;28;20045;-92
2022/10/08 03:57:08;;;;;;;3.45;1.25;;;11.10;99.90;;;;;;5043957;28;20052;-93
2022/10/08 03:59:34;;;;;;;6.55;1.23;;;11.20;99.90;;;;;;5026211;28;20055;-94
2022/10/08 04:02:00;;;;;;;1.67;1.10;;;11.10;99.90;;;;;;5042754;28;20102;-94
2022/10/08 04:04:25;;;;;;;2.90;1.50;;;11.10;99.90;;;;;;5041983;28;20048;-91
2022/10/08 04:06:51;;;;;;;1.73;1.23;;;11.10;99.90;;;;;;5026665;28;20079;-93
2022/10/08 04:09:17;;;;;;;2.10;1.33;;;11.60;99.90;;;;;;5042516;28;20060;-94
2022/10/08 04:11:43;;;;;;;1.83;1.08;;;11.10;99.90;;;;;;5042862;28;20055;-92
2022/10/08 04:14:08;;;;;;;3.50;1.50;;;11.10;99.90;;;;;;5042175;28;20102;-93
2022/10/08 04:16:34;;;;;;;1.65;1.20;;;11.10;99.90;;;;;;5042642;28;20456;-92
2022/10/08 04:19:00;;;;;;;1.83;1.08;;;11.30;99.90;;;;;;5025943;28;20052;-93
2022/10/08 04:21:28;;;;;;;1.73;1.00;;;11.20;99.90;;;;;;5025058;28;20472;-93
2022/10/08 04:23:54;;;;;;;2.78;1.13;;;11.00;99.90;;;;;;5025740;28;20083;-93
2022/10/08 04:26:20;;;;;;;1.08;0.90;;;11.00;99.90;;;;;;5058609;28;20075;-92
2022/10/08 04:28:47;;;;;;;1.02;0.90;;;11.00;99.90;;;;;;5025896;28;20048;-94
2022/10/08 04:31:20;;;;;;;2.45;1.10;;;9.00;99.90;;;;;;5025437;28;20135;-90
2022/10/08 04:33:47;;;;;;;6.85;1.10;;;11.00;99.90;;;;;;5042423;28;20487;-93
2022/10/08 04:36:15;;;;;;;4.65;0.98;;;11.00;99.90;;;;;;5009083;28;20135;-92
2022/10/08 04:38:42;;;;;;;5.90;1.08;;;11.00;99.90;;;;;;5042945;28;20044;-94
2022/10/08 04:41:15;;;;;;;2.50;1.13;;;11.70;99.90;;;;;;5009660;28;20201;-94
2022/10/08 04:43:45;;;;;;;3.92;1.40;;;11.30;99.90;;;;;;5042384;28;20154;-96
2022/10/08 04:46:14;;;;;;;2.75;1.00;;;10.40;99.90;;;;;;5041630;28;20133;-96
2022/10/08 04:48:46;;;;;;;4.70;1.48;;;11.00;99.90;;;;;;5042721;28;20050;-92
2022/10/08 04:51:12;;;;;;;1.88;1.13;;;10.90;99.90;;;;;;5041678;28;20052;-93
2022/10/08 04:53:38;;;;;;;1.00;0.88;;;11.00;99.90;;;;;;5041224;28;20051;-92
2022/10/08 04:56:16;;;;;;;3.42;1.38;;;10.90;99.90;;;;;;5025595;28;20048;-93
2022/10/08 04:58:45;;;;;;;2.60;1.13;;;10.90;99.90;;;;;;5042097;28;20088;-93
2022/10/08 05:01:14;;;;;;;1.67;1.10;;;11.30;99.90;;;;;;5042519;28;20475;-92
2022/10/08 05:03:44;;;;;;;2.15;1.05;;;10.80;99.90;;;;;;5041218;28;20476;-94
2022/10/08 05:06:10;;;;;;;1.30;0.93;;;10.90;99.90;;;;;;5041180;28;20040;-92
2022/10/08 05:08:37;;;;;;;1.30;0.93;;;10.90;99.90;;;;;;5024903;28;20044;-93
2022/10/08 05:11:03;;;;;;;1.83;1.10;;;10.80;99.90;;;;;;5041431;28;20041;-95
2022/10/08 05:13:32;;;;;;;1.73;1.20;;;10.90;99.90;;;;;;5042487;28;20097;-94
2022/10/08 05:16:03;;;;;;;0.73;0.70;;;10.80;99.90;;;;;;5026955;28;20102;-94
2022/10/08 05:18:30;;;;;;;2.28;1.17;;;11.40;99.90;;;;;;5022999;28;20041;-92
2022/10/08 05:20:56;;;;;;;2.75;0.80;;;10.80;99.90;;;;;;5022349;28;20092;-93
2022/10/08 05:23:22;;;;;;;6.57;1.23;;;10.80;99.90;;;;;;5006290;28;20084;-92
2022/10/08 05:25:49;;;;;;;1.27;0.80;;;11.00;99.90;;;;;;5021991;28;20091;-92
2022/10/08 05:28:15;;;;;;;2.20;1.15;;;10.70;99.90;;;;;;5023275;28;20416;-95
2022/10/08 05:30:41;;;;;;;3.88;1.15;;;10.80;99.90;;;;;;5005787;28;20061;-94
2022/10/08 05:33:07;;;;;;;4.30;1.13;;;10.70;99.90;;;;;;5006941;28;20136;-92
2022/10/08 05:35:40;;;;;;;1.70;0.95;;;10.70;99.90;;;;;;4990803;28;20053;-94
2022/10/08 05:38:06;;;;;;;3.67;1.10;;;11.10;99.90;;;;;;5021725;28;20044;-94
2022/10/08 05:40:32;;;;;;;4.03;1.25;;;11.00;99.90;;;;;;5020815;28;20103;-93
2022/10/08 05:42:57;;;;;;;4.95;0.73;;;10.60;99.90;;;;;;5022085;28;20055;-93
2022/10/08 05:45:23;;;;;;;2.78;0.90;;;10.20;99.90;;;;;;5021491;28;20048;-93
2022/10/08 05:47:49;;;;;;;3.53;0.85;;;10.30;99.90;;;;;;5004175;28;20427;-93
2022/10/08 05:50:15;;;;;;;2.25;1.05;;;10.60;99.90;;;;;;5005441;28;20049;-94
2022/10/08 05:52:41;;;;;;;0.65;0.50;;;10.60;99.90;;;;;;5005884;28;20052;-95
2022/10/08 05:55:07;;;;;;;1.20;0.82;;;10.70;99.90;;;;;;5005301;28;20045;-93
2022/10/08 05:57:33;;;;;;;1.23;0.50;;;10.50;99.90;;;;;;5005256;28;20053;-94
2022/10/08 05:59:59;;;;;;;1.15;0.75;;;10.50;99.90;;;;;;5005478;28;20049;-94
2022/10/08 06:02:31;;;;;;;3.15;0.85;;;10.70;99.90;;;;;;5038598;28;20045;-94
2022/10/08 06:04:56;;;;;;;1.67;0.90;;;10.80;99.90;;;;;;4989018;28;20057;-92
2022/10/08 06:07:22;;;;;;;1.33;0.70;;;10.50;99.90;;;;;;5024152;28;20131;-94
2022/10/08 06:09:51;;;;;;;1.30;0.80;;;10.70;99.90;;;;;;5022031;28;20053;-96
2022/10/08 06:12:20;;;;;;;5.38;0.75;;;10.50;99.90;;;;;;5023027;28;20045;-93
2022/10/08 06:14:45;;;;;;;1.80;0.80;;;10.50;99.90;;;;;;5022693;28;20045;-94
2022/10/08 06:17:11;;;;;;;1.90;0.85;;;10.80;99.90;;;;;;5014571;28;20514;-95
2022/10/08 06:19:37;;;;;;;2.30;0.70;;;9.40;99.90;;;;;;5041935;28;20083;-94
2022/10/08 06:22:03;;;;;;;2.30;0.80;;;10.50;99.90;;;;;;5042407;28;20083;-94
2022/10/08 06:24:30;;;;;;;2.58;0.63;;;11.00;99.90;;;;;;5042387;28;20366;-93
2022/10/08 06:26:58;;;;;;;3.72;0.85;;;10.50;99.90;;;;;;5042884;28;20056;-95
2022/10/08 06:29:24;;;;;;;4.05;0.60;;;10.50;99.90;;;;;;5027431;28;20044;-96
2022/10/08 06:31:50;;;;;;;6.25;1.30;;;11.50;99.90;;;;;;5042678;28;20054;-94
2022/10/08 06:34:16;;;;;;;1.90;0.68;;;11.10;99.90;;;;;;5028167;28;20049;-95
2022/10/08 06:36:42;;;;;;;2.35;0.93;;;9.30;99.90;;;;;;5027705;28;20070;-96
2022/10/08 06:39:13;;;;;;;1.58;0.82;;;10.70;99.90;;;;;;5030218;28;20040;-94
2022/10/08 06:41:39;;;;;;;;;;;10.90;99.90;;;;;;5046907;28;20102;-94
2022/10/08 06:44:08;;;;;;;1.98;0.95;;;10.90;99.90;;;;;;5046020;28;19920;-95
2022/10/08 06:46:34;;;;;;;2.97;1.00;;;10.90;99.90;;;;;;5046561;28;20052;-93
2022/10/08 06:49:00;;;;;;;5.25;0.80;;;10.80;99.90;;;;;;5046136;28;20074;-95
2022/10/08 06:51:35;;;;;;;1.77;0.50;;;11.00;99.90;;;;;;5045821;28;20506;-95
2022/10/08 06:54:01;;;;;;;2.50;0.88;;;9.50;99.90;;;;;;5047117;28;20049;-95
2022/10/08 06:56:27;;;;;;;1.63;0.60;;;9.90;99.90;;;;;;5014177;28;20221;-93
2022/10/08 06:58:53;;;;;;;5.13;0.95;;;10.90;99.90;;;;;;5028924;28;20414;-94
2022/10/08 07:01:23;;;;;;;1.15;0.70;;;11.10;99.90;;;;;;5029800;28;20051;-96
2022/10/08 07:03:55;;;;;;;2.72;1.00;;;11.20;99.90;;;;;;5047296;28;20067;-95
2022/10/08 07:06:22;;;;;;;1.63;0.47;;;11.40;99.90;;;;;;5049097;28;20048;-96
2022/10/08 07:08:56;;;;;;;2.30;0.70;;;11.40;99.90;;;;;;5029104;28;20044;-95
2022/10/08 07:11:26;;;;;;;2.33;0.60;;;11.60;99.90;;;;;;5047143;28;20057;-96
2022/10/08 07:20:13;;;;;;;2.38;0.70;;;11.70;99.90;;;;;;1477745;26;20591;-65
2022/10/08 07:22:39;;;;;;;3.38;0.90;;;11.80;99.90;;;;;;4997347;28;20563;-65
2022/10/08 07:25:06;;;;;;;3.85;1.05;;;12.00;99.90;;;;;;5014603;28;20129;-65
2022/10/08 07:27:32;;;;;;;2.88;0.70;;;12.00;99.90;;;;;;4997348;28;20045;-65
2022/10/08 07:29:59;;;;;;;1.67;0.55;;;12.00;99.90;;;;;;5014619;28;20070;-65
2022/10/08 07:32:26;;;;;;;1.83;0.65;;;11.90;99.90;;;;;;5014843;28;20045;-64
2022/10/08 07:41:17;;;;;;;3.75;0.70;;;12.00;99.90;;;;;;5052768;28;20072;-64
2022/10/08 07:43:43;;;;;;;2.38;0.45;;;12.50;99.90;;;;;;5054299;28;20421;-65
2022/10/08 07:46:10;;;;;;;6.63;1.13;;;12.10;99.90;;;;;;5036475;28;20115;-65
2022/10/08 07:48:36;;;;;;;4.97;0.82;;;12.20;99.90;;;;;;5053240;28;20407;-65
2022/10/08 07:51:12;;;;;;;1.33;0.90;;;12.20;99.90;;;;;;5054480;28;20112;-65
2022/10/08 07:53:39;;;;;;;0.52;0.47;;;12.30;99.90;;;;;;5036243;28;20036;-65
2022/10/08 07:56:06;;;;;;;3.63;0.60;;;12.40;99.90;;;;;;5054460;28;20041;-66
2022/10/08 07:58:32;;;;;;;1.08;0.68;;;12.50;99.90;;;;;;5036435;28;20057;-65
2022/10/08 08:00:59;;;;;;;2.03;0.73;;;12.90;99.90;;;;;;5054247;28;20074;-64
2022/10/08 08:03:25;;;;;;;1.98;0.70;;;12.60;99.90;;;;;;5035887;28;20037;-65
2022/10/08 08:05:52;;;;;;;4.25;0.80;;;12.50;99.90;;;;;;5054197;28;20663;-65
2022/10/08 08:08:22;;;;;;;3.58;0.60;;;12.50;99.90;;;;;;5053923;28;20053;-64
2022/10/08 08:10:49;;;;;;;1.40;0.60;;;12.50;99.90;;;;;;5054096;28;20033;-65
2022/10/08 08:13:14;;;;;;;1.70;0.50;;;12.60;99.90;;;;;;5053738;28;20576;-65
2022/10/08 08:15:40;;;;;;;2.15;0.63;;;12.60;99.90;;;;;;5036000;28;20049;-65
2022/10/08 08:18:06;;;;;;;1.98;0.70;;;12.60;99.90;;;;;;5035867;28;20155;-65
2022/10/08 08:20:31;;;;;;;1.20;0.60;;;12.70;99.90;;;;;;5053589;28;20044;-65
2022/10/08 08:22:57;;;;;;;2.08;0.60;;;12.80;99.90;;;;;;5053503;28;20128;-64
2022/10/08 08:25:23;;;;;;;3.88;1.23;;;12.80;99.90;;;;;;5035647;28;20044;-64
2022/10/08 08:27:48;;;;;;;0.40;0.40;;;12.80;99.90;;;;;;5053396;28;20098;-64
2022/10/08 08:30:14;;;;;;;1.83;0.80;;;12.80;99.90;;;;;;5053412;28;20119;-64
2022/10/08 08:32:40;;;;;;;5.03;0.68;;;12.80;99.90;;;;;;5053444;28;20048;-65
2022/10/08 08:35:06;;;;;;;2.60;0.60;;;13.20;99.90;;;;;;5053499;28;20479;-65
2022/10/08 08:37:32;;;;;;;1.17;0.63;;;12.90;99.90;;;;;;5035452;28;20443;-64
2022/10/08 08:39:57;;;;;;;2.67;0.60;;;12.90;99.90;;;;;;5053143;28;20059;-65
2022/10/08 08:43:01;;;;;;;5.78;1.10;;;12.90;99.90;;;;;;5052142;28;20051;-65
2022/10/08 08:45:32;;;;;;;6.82;0.63;;;12.90;99.90;;;;;;4991489;28;20038;-65
2022/10/08 08:48:11;;;;;;;3.58;0.57;;;13.00;99.90;;;;;;4991643;28;20034;-65
2022/10/08 08:50:40;;;;;;;2.78;0.88;;;13.10;99.90;;;;;;5010723;28;20053;-65
2022/10/08 08:53:08;;;;;;;1.88;0.63;;;13.20;99.90;;;;;;5053347;28;20047;-65
2022/10/08 08:55:44;;;;;;;0.40;0.40;;;13.30;99.90;;;;;;5053196;28;20067;-65
2022/10/08 08:58:33;;;;;;;2.25;0.60;;;13.40;99.90;;;;;;5053215;28;20068;-66
2022/10/08 09:01:22;;;;;;;0.60;0.45;;;13.50;99.90;;;;;;5052863;28;20045;-65
2022/10/08 09:04:17;;;;;;;0.85;0.38;;;13.50;99.90;;;;;;5052792;28;20133;-66
2022/10/08 09:06:44;;;;;;;1.15;0.52;;;13.50;99.90;;;;;;5024209;28;20045;-66
2022/10/08 09:09:22;;;;;;;0.80;0.50;;;13.60;99.90;;;;;;5053039;28;20036;-66
2022/10/08 09:11:48;;;;;;;0.40;0.30;;;13.70;99.90;;;;;;5052966;28;20037;-65
2022/10/08 09:14:35;;;;;;;1.27;0.50;;;13.90;99.90;;;;;;5035098;28;20515;-66
2022/10/08 09:17:17;;;;;;;0.85;0.52;;;14.00;99.90;;;;;;5052997;28;20052;-65
2022/10/08 09:19:44;;;;;;;1.50;0.70;;;14.10;99.90;;;;;;5052647;28;20044;-66
2022/10/08 09:22:28;;;;;;;0.80;0.45;;;14.10;99.70;;;;;;5034677;28;20205;-66
2022/10/08 09:25:03;;;;;;;4.85;0.60;;;14.10;99.00;;;;;;5052513;28;20053;-66
2022/10/08 09:28:03;;;;;;;0.77;0.50;;;14.10;99.20;;;;;;5051205;28;20037;-66
2022/10/08 09:30:34;;;;;;;0.80;0.32;;;14.10;98.60;;;;;;5019598;28;20068;-66
2022/10/08 09:33:11;;;;;;;2.03;0.60;;;14.10;98.00;;;;;;5052443;28;20131;-64
2022/10/08 09:35:43;;;;;;;1.40;0.40;;;14.10;98.50;;;;;;5034751;28;20049;-66
2022/10/08 09:38:30;;;;;;;0.75;0.40;;;14.00;98.00;;;;;;5052553;28;20102;-66
2022/10/08 09:41:17;;;;;;;0.32;0.30;;;14.00;97.60;;;;;;5034284;28;20060;-66
2022/10/08 09:43:44;;;;;;;1.35;0.45;;;14.00;99.30;;;;;;5052324;28;20048;-66
2022/10/08 09:46:31;;;;;;;0.95;0.40;;;13.90;98.40;;;;;;5034946;28;20037;-66
2022/10/08 09:49:23;;;;;;;3.67;0.45;;;13.80;96.80;;;;;;5052426;28;20041;-66
2022/10/08 09:51:49;;;;;;;2.08;0.80;;;13.70;97.40;;;;;;5034299;28;20087;-65
2022/10/08 09:54:26;;;;;;;2.47;0.50;;;13.60;96.90;;;;;;5052013;28;20434;-67
2022/10/08 09:56:57;;;;;;;3.53;0.60;;;13.50;98.10;;;;;;5052276;28;20036;-66
2022/10/08 09:59:26;;;;;;;1.25;0.52;;;13.40;97.60;;;;;;5052279;28;20087;-66
2022/10/08 10:01:52;;;;;;;0.73;0.40;;;13.40;97.90;;;;;;5034123;28;20110;-66
2022/10/08 10:04:36;;;;;;;2.05;0.60;;;13.50;98.20;;;;;;5034162;28;20041;-66
2022/10/08 10:07:03;;;;;;;3.72;0.52;;;13.60;97.10;;;;;;5034041;28;20056;-66
2022/10/08 10:09:53;;;;;;;8.57;0.75;;;13.80;97.30;;;;;;5052288;28;20037;-67
2022/10/08 10:12:32;;;;;;;3.92;0.50;;;14.00;96.00;;;;;;5039868;28;20106;-67
2022/10/08 10:15:05;;;;;;;1.67;0.38;;;14.20;95.40;;;;;;5058598;28;20103;-66
2022/10/08 10:18:03;;;;;;;0.95;0.50;;;14.30;93.00;;;;;;5041221;28;20062;-66
2022/10/08 10:20:36;;;;;;;3.80;0.55;;;14.40;87.00;;;;;;5058474;28;20052;-66
2022/10/08 10:23:13;;;;;;;3.60;0.40;;;14.40;91.50;;;;;;5040445;28;20040;-66
2022/10/08 10:25:50;;;;;;;1.17;0.30;;;14.40;84.70;;;;;;5058417;28;20047;-66
2022/10/08 10:28:37;;;;;;;2.03;0.57;;;14.60;81.50;;;;;;5040680;28;20496;-67
2022/10/08 10:31:07;;;;;;;1.63;0.45;;;14.80;85.90;;;;;;5040465;28;20040;-66
2022/10/08 10:33:41;;;;;;;1.13;0.50;;;15.00;88.00;;;;;;5058788;28;20373;-65
2022/10/08 10:36:13;;;;;;;0.30;0.30;;;15.10;82.90;;;;;;5040688;28;20513;-66
2022/10/08 10:38:49;;;;;;;1.95;0.40;;;15.30;81.00;;;;;;5058639;28;20545;-66
2022/10/08 10:41:31;;;;;;;0.95;0.55;;;15.30;69.70;;;;;;5058074;28;20115;-66
2022/10/08 10:44:02;;;;;;;1.60;0.60;;;15.40;69.30;;;;;;5058526;28;20049;-67
2022/10/08 10:46:48;;;;;;;;;;;15.40;59.60;;;;;;5058637;28;20041;-67
2022/10/08 10:49:21;;;;;;;0.88;0.30;;;15.20;52.60;;;;;;5056910;28;19982;-66
2022/10/08 10:52:23;;;;;;;1.27;0.43;;;15.00;63.20;;;;;;5058290;28;20041;-66
2022/10/08 10:55:14;;;;;;;1.25;0.50;;;14.70;63.90;;;;;;5040240;28;20123;-66
2022/10/08 10:57:48;;;;;;;0.60;0.40;;;14.40;75.10;;;;;;5058603;28;20033;-67
2022/10/08 11:00:29;;;;;;;1.95;0.63;;;14.30;69.40;;;;;;5058351;28;20037;-66
2022/10/08 11:03:22;;;;;;;2.63;0.60;;;14.10;73.10;;;;;;5058336;28;20045;-66
2022/10/08 11:05:55;;;;;;;1.48;0.75;;;14.20;80.30;;;;;;5014230;28;20052;-66
2022/10/08 11:08:49;;;;;;;4.05;0.40;;;14.40;79.70;;;;;;5058270;28;20092;-66
2022/10/08 11:11:41;;;;;;;1.20;0.50;;;14.60;72.80;;;;;;5058281;28;20537;-66
2022/10/08 11:14:32;;;;;;;1.80;0.93;;;14.60;76.30;;;;;;5057959;28;20048;-66
2022/10/08 11:16:58;;;;;;;0.80;0.38;;;14.50;76.20;;;;;;5040323;28;20059;-66
2022/10/08 11:19:24;;;;;;;4.00;0.73;;;14.40;74.90;;;;;;5058138;28;20048;-66
2022/10/08 11:22:08;;;;;;;5.82;0.45;;;14.40;76.30;;;;;;5039765;28;20055;-66
2022/10/08 11:24:37;;;;;;;1.17;0.50;;;14.40;65.50;;;;;;5055038;28;20045;-66
2022/10/08 11:27:33;;;;;;;5.15;0.77;;;14.60;57.00;;;;;;5036835;28;20072;-67
2022/10/08 11:30:13;;;;;;;0.95;0.35;;;14.80;43.40;;;;;;5054985;28;20115;-66
2022/10/08 11:32:43;;;;;;;1.65;0.40;;;14.90;54.10;;;;;;5037197;28;20499;-67
2022/10/08 11:35:20;;;;;;;1.52;0.40;;;15.00;50.90;;;;;;5053636;28;20041;-66
2022/10/08 11:38:16;;;;;;;1.35;0.30;;;15.20;50.30;;;;;;5054782;28;20041;-67
2022/10/08 11:40:54;;;;;;;3.80;0.63;;;15.30;35.40;;;;;;5054418;28;20069;-67
2022/10/08 11:43:35;;;;;;;0.45;0.38;;;15.30;52.20;;;;;;5054385;28;20124;-66
2022/10/08 11:46:27;;;;;;;3.45;0.70;;;15.20;48.40;;;;;;5054429;28;20049;-67
2022/10/08 11:48:55;;;;;;;1.00;0.50;;;15.30;51.80;;;;;;5036704;28;20064;-67
2022/10/08 11:51:21;;;;;;;4.30;0.60;;;15.50;63.60;;;;;;5054503;28;20073;-66
2022/10/08 11:54:12;;;;;;;2.67;0.65;;;15.70;50.80;;;;;;5054217;28;20084;-67
2022/10/08 11:56:39;;;;;;;;;;;15.80;45.70;;;;;;5047314;28;20127;-66
2022/10/08 11:59:25;;;;;;;1.85;0.45;;;15.80;14.00;;;;;;5054094;28;19924;-66
2022/10/08 12:02:00;;;;;;;1.70;0.57;;;15.90;18.80;;;;;;5053738;28;20053;-66
2022/10/08 12:04:33;;;;;;;1.35;0.50;;;15.90;29.40;;;;;;5036033;28;20103;-66
2022/10/08 12:07:28;;;;;;;0.40;0.20;;;16.00;12.40;;;;;;5054037;28;20160;-66
2022/10/08 12:10:05;;;;;;;1.45;0.40;;;16.20;2.20;;;;;;5054306;28;20407;-66
2022/10/08 12:12:49;;;;;;;1.83;0.30;;;16.20;1.00;;;;;;5054160;28;20045;-66
2022/10/08 12:15:24;;;;;;;1.50;0.40;;;16.20;99.90;;;;;;5035968;28;20045;-66
2022/10/08 12:17:51;;;;;;;3.05;0.50;;;16.30;1.00;;;;;;5035967;28;20139;-66
2022/10/08 12:20:25;;;;;;;2.63;0.40;;;16.40;99.90;;;;;;5053913;28;20041;-66
2022/10/08 12:23:08;;;;;;;4.90;0.82;;;16.40;99.90;;;;;;5053901;28;20509;-66
2022/10/08 12:25:39;;;;;;;1.35;0.52;;;16.50;99.90;;;;;;5053954;28;20134;-67
2022/10/08 12:28:20;;;;;;;4.82;0.40;;;16.50;99.90;;;;;;5053976;28;20033;-66
2022/10/08 12:30:46;;;;;;;1.73;0.57;;;16.70;99.90;;;;;;5053791;28;20480;-66
2022/10/08 12:33:12;;;;;;;1.05;0.40;;;16.80;99.90;;;;;;5035545;28;20053;-66
2022/10/08 12:35:52;;;;;;;3.15;0.50;;;16.80;99.90;;;;;;5053121;28;20037;-66
2022/10/08 12:38:41;;;;;;;4.18;0.45;;;16.80;27.70;;;;;;5053621;28;20045;-66
2022/10/08 12:41:30;;;;;;;0.32;0.20;;;16.80;60.60;;;;;;5053266;28;20416;-67
2022/10/08 12:43:59;;;;;;;0.88;0.20;;;16.50;99.90;;;;;;5053455;28;20518;-66
2022/10/08 12:46:40;;;;;;;0.35;0.35;;;16.40;1.00;;;;;;5053453;28;20135;-66
2022/10/08 12:49:42;;;;;;;2.08;0.50;;;16.20;1.00;;;;;;5053347;28;20045;-66
2022/10/08 12:52:10;;;;;;;3.40;0.43;;;16.00;99.90;;;;;;5052992;28;20037;-66
2022/10/08 12:54:40;;;;;;;1.63;0.20;;;16.10;99.90;;;;;;5052985;28;20175;-66
2022/10/08 12:57:11;;;;;;;1.45;0.45;;;16.10;99.90;;;;;;5035334;28;20053;-66
2022/10/08 12:59:39;;;;;;;1.10;0.40;;;16.20;99.90;;;;;;5034894;28;20055;-65
2022/10/08 13:02:28;;;;;;;1.08;0.43;;;16.20;99.90;;;;;;5034890;28;20118;-66
2022/10/08 13:04:53;;;;;;;2.65;0.70;;;16.20;99.90;;;;;;5052677;28;20107;-66
2022/10/08 13:07:28;;;;;;;0.45;0.35;;;16.00;99.90;;;;;;5053268;28;20041;-66
2022/10/08 13:09:59;;;;;;;1.63;0.40;;;15.80;99.90;;;;;;5052593;28;20040;-67
2022/10/08 13:12:24;;;;;;;;;;;15.60;1.00;;;;;;5053332;28;20116;-66
2022/10/08 13:15:20;;;;;;;3.15;1.48;;;15.30;1.00;;;;;;5034851;28;19982;-66
2022/10/08 13:17:45;;;;;;;5.55;0.50;;;15.20;99.90;;;;;;5050608;28;20141;-67
2022/10/08 13:20:14;;;;;;;1.75;0.40;;;15.30;1.00;;;;;;5052494;28;20100;-67
2022/10/08 13:22:39;;;;;;;2.35;0.73;;;15.30;1.00;;;;;;5052634;28;20040;-65
2022/10/08 13:25:40;;;;;;;1.48;0.30;;;15.50;99.90;;;;;;5052654;28;20047;-66
2022/10/08 13:28:22;;;;;;;1.35;0.57;;;15.60;99.90;;;;;;5052458;28;20044;-66
2022/10/08 13:30:55;;;;;;;1.25;0.75;;;15.80;99.90;;;;;;5052594;28;20041;-66
2022/10/08 13:33:26;;;;;;;0.45;0.30;;;15.90;47.90;;;;;;5052079;28;20056;-67